sensor_id;sensor_type;location;lat;lon;timestamp;pressure;altitude;pressure_sealevel;temperature;humidity
3844;BME280;1937;51.444;6.484;2023-05-19T00:01:07;67016.34;;;10.19;72.04
3844;BME280;1937;51.444;6.484;2023-05-19T00:03:35;67045.38;;;10.13;72.31
3844;BME280;1937;51.444;6.484;2023-05-19T00:06:05;66993.50;;;10.02;73.02
3844;BME280;1937;51.444;6.484;2023-05-19T00:08:37;67006.38;;;10.02;72.99
3844;BME280;1937;51.444;6.484;2023-05-19T00:11:04;67007.53;;;10.03;72.98
3844;BME280;1937;51.444;6.484;2023-05-19T00:13:32;66978.31;;;9.95;73.45
3844;BME280;1937;51.444;6.484;2023-05-19T00:15:59;66978.13;;;9.81;74.28
3844;BME280;1937;51.444;6.484;2023-05-19T00:18:26;66984.28;;;9.94;73.53
3844;BME280;1937;51.444;6.484;2023-05-19T00:20:54;66991.03;;;9.86;74.14
3844;BME280;1937;51.444;6.484;2023-05-19T00:23:20;66995.00;;;9.85;73.66
3844;BME280;1937;51.444;6.484;2023-05-19T00:25:48;66974.16;;;9.82;74.36
3844;BME280;1937;51.444;6.484;2023-05-19T00:28:16;66967.41;;;9.70;75.18
3844;BME280;1937;51.444;6.484;2023-05-19T00:30:43;66960.53;;;9.68;75.60
3844;BME280;1937;51.444;6.484;2023-05-19T00:33:09;66989.13;;;9.71;75.10
3844;BME280;1937;51.444;6.484;2023-05-19T00:35:36;66985.31;;;9.85;74.56
3844;BME280;1937;51.444;6.484;2023-05-19T00:38:04;66980.31;;;9.74;75.07
3844;BME280;1937;51.444;6.484;2023-05-19T00:40:33;66969.47;;;9.74;74.94
3844;BME280;1937;51.444;6.484;2023-05-19T00:43:01;67012.50;;;9.69;75.06
3844;BME280;1937;51.444;6.484;2023-05-19T00:45:29;66953.16;;;9.71;74.79
3844;BME280;1937;51.444;6.484;2023-05-19T00:47:56;66955.19;;;9.55;75.27
3844;BME280;1937;51.444;6.484;2023-05-19T00:50:23;66961.06;;;9.64;75.74
3844;BME280;1937;51.444;6.484;2023-05-19T00:52:49;66943.06;;;9.44;76.19
3844;BME280;1937;51.444;6.484;2023-05-19T00:55:16;66929.78;;;9.53;76.11
3844;BME280;1937;51.444;6.484;2023-05-19T00:57:43;66918.44;;;9.36;76.47
3844;BME280;1937;51.444;6.484;2023-05-19T01:00:13;66938.66;;;9.33;76.74
3844;BME280;1937;51.444;6.484;2023-05-19T01:02:41;66916.56;;;9.25;77.34
3844;BME280;1937;51.444;6.484;2023-05-19T01:05:08;66918.81;;;9.23;76.78
3844;BME280;1937;51.444;6.484;2023-05-19T01:07:35;66914.97;;;9.33;76.72
3844;BME280;1937;51.444;6.484;2023-05-19T01:10:03;66927.56;;;9.15;77.21
3844;BME280;1937;51.444;6.484;2023-05-19T01:12:32;66955.88;;;9.39;76.12
3844;BME280;1937;51.444;6.484;2023-05-19T01:14:58;66920.75;;;9.38;76.95
3844;BME280;1937;51.444;6.484;2023-05-19T01:17:29;66921.38;;;9.43;76.49
3844;BME280;1937;51.444;6.484;2023-05-19T01:20:03;66962.03;;;9.52;76.30
3844;BME280;1937;51.444;6.484;2023-05-19T01:22:50;66938.78;;;9.42;76.38
3844;BME280;1937;51.444;6.484;2023-05-19T01:25:38;66952.72;;;9.39;76.23
3844;BME280;1937;51.444;6.484;2023-05-19T01:28:25;66919.91;;;9.19;77.08
3844;BME280;1937;51.444;6.484;2023-05-19T01:30:59;66948.53;;;9.26;76.59
3844;BME280;1937;51.444;6.484;2023-05-19T01:33:29;66940.53;;;9.24;76.44
3844;BME280;1937;51.444;6.484;2023-05-19T01:35:58;66930.75;;;9.20;76.72
3844;BME280;1937;51.444;6.484;2023-05-19T01:38:27;66908.13;;;9.11;76.69
3844;BME280;1937;51.444;6.484;2023-05-19T01:40:55;66912.59;;;9.06;77.85
3844;BME280;1937;51.444;6.484;2023-05-19T01:43:24;66897.13;;;9.01;78.28
3844;BME280;1937;51.444;6.484;2023-05-19T01:45:52;66932.50;;;9.21;77.40
3844;BME280;1937;51.444;6.484;2023-05-19T01:48:20;66910.28;;;9.24;77.41
3844;BME280;1937;51.444;6.484;2023-05-19T01:50:48;66910.16;;;9.15;77.33
3844;BME280;1937;51.444;6.484;2023-05-19T01:53:14;66900.59;;;9.25;77.67
3844;BME280;1937;51.444;6.484;2023-05-19T01:55:43;66943.00;;;9.19;77.65
3844;BME280;1937;51.444;6.484;2023-05-19T01:58:16;66864.16;;;9.09;77.69
3844;BME280;1937;51.444;6.484;2023-05-19T02:00:51;66888.88;;;9.01;77.96
3844;BME280;1937;51.444;6.484;2023-05-19T02:03:29;66882.00;;;8.99;78.55
3844;BME280;1937;51.444;6.484;2023-05-19T02:06:08;66884.94;;;8.86;78.68
3844;BME280;1937;51.444;6.484;2023-05-19T02:08:40;66866.22;;;8.92;77.91
3844;BME280;1937;51.444;6.484;2023-05-19T02:11:13;66852.16;;;8.87;78.11
3844;BME280;1937;51.444;6.484;2023-05-19T02:13:49;66861.84;;;8.86;78.92
3844;BME280;1937;51.444;6.484;2023-05-19T02:16:20;66789.19;;;8.68;78.09
3844;BME280;1937;51.444;6.484;2023-05-19T02:18:53;66848.25;;;8.72;78.77
3844;BME280;1937;51.444;6.484;2023-05-19T02:21:20;66855.75;;;8.79;78.92
3844;BME280;1937;51.444;6.484;2023-05-19T02:23:47;66843.88;;;8.66;79.04
3844;BME280;1937;51.444;6.484;2023-05-19T02:26:14;66852.63;;;8.58;80.42
3844;BME280;1937;51.444;6.484;2023-05-19T02:28:40;66851.53;;;8.61;79.14
3844;BME280;1937;51.444;6.484;2023-05-19T02:31:07;66841.97;;;8.71;78.80
3844;BME280;1937;51.444;6.484;2023-05-19T02:33:34;66862.94;;;8.62;79.18
3844;BME280;1937;51.444;6.484;2023-05-19T02:36:03;66832.28;;;8.51;79.75
3844;BME280;1937;51.444;6.484;2023-05-19T02:38:30;66833.50;;;8.57;79.53
3844;BME280;1937;51.444;6.484;2023-05-19T02:40:57;66852.34;;;8.60;79.49
3844;BME280;1937;51.444;6.484;2023-05-19T02:43:23;66862.63;;;8.60;79.94
3844;BME280;1937;51.444;6.484;2023-05-19T02:45:50;66866.28;;;8.56;79.93
3844;BME280;1937;51.444;6.484;2023-05-19T02:48:16;66851.84;;;8.64;78.86
3844;BME280;1937;51.444;6.484;2023-05-19T02:50:43;66839.81;;;8.58;79.05
3844;BME280;1937;51.444;6.484;2023-05-19T02:53:11;66854.66;;;8.62;79.45
3844;BME280;1937;51.444;6.484;2023-05-19T02:55:38;66858.00;;;8.56;79.85
3844;BME280;1937;51.444;6.484;2023-05-19T02:58:05;66853.16;;;8.54;80.23
3844;BME280;1937;51.444;6.484;2023-05-19T03:00:31;66849.22;;;8.59;79.38
3844;BME280;1937;51.444;6.484;2023-05-19T03:02:58;66851.13;;;8.54;79.52
3844;BME280;1937;51.444;6.484;2023-05-19T03:05:26;66845.19;;;8.56;79.72
3844;BME280;1937;51.444;6.484;2023-05-19T03:07:54;66841.22;;;8.57;79.33
3844;BME280;1937;51.444;6.484;2023-05-19T03:10:22;66828.97;;;8.57;79.97
3844;BME280;1937;51.444;6.484;2023-05-19T03:12:48;66852.69;;;8.62;79.91
3844;BME280;1937;51.444;6.484;2023-05-19T03:15:15;66809.53;;;8.34;79.61
3844;BME280;1937;51.444;6.484;2023-05-19T03:17:43;66830.31;;;8.52;80.15
3844;BME280;1937;51.444;6.484;2023-05-19T03:20:10;66825.69;;;8.48;80.16
3844;BME280;1937;51.444;6.484;2023-05-19T03:22:37;66876.78;;;8.54;79.41
3844;BME280;1937;51.444;6.484;2023-05-19T03:25:04;66855.72;;;8.54;80.25
3844;BME280;1937;51.444;6.484;2023-05-19T03:27:32;66838.97;;;8.39;79.75
3844;BME280;1937;51.444;6.484;2023-05-19T03:29:59;66842.22;;;8.49;79.95
3844;BME280;1937;51.444;6.484;2023-05-19T03:32:25;66828.25;;;8.48;79.69
3844;BME280;1937;51.444;6.484;2023-05-19T03:34:52;66874.63;;;8.61;79.78
3844;BME280;1937;51.444;6.484;2023-05-19T03:37:18;66862.16;;;8.48;80.38
3844;BME280;1937;51.444;6.484;2023-05-19T03:39:45;66827.25;;;8.36;80.15
3844;BME280;1937;51.444;6.484;2023-05-19T03:42:12;66834.34;;;8.35;80.54
3844;BME280;1937;51.444;6.484;2023-05-19T03:44:40;66858.38;;;8.43;80.10
3844;BME280;1937;51.444;6.484;2023-05-19T03:47:07;66817.22;;;8.34;80.56
3844;BME280;1937;51.444;6.484;2023-05-19T03:49:33;66848.88;;;8.37;80.00
3844;BME280;1937;51.444;6.484;2023-05-19T03:52:00;66825.16;;;8.32;80.64
3844;BME280;1937;51.444;6.484;2023-05-19T03:54:27;66807.84;;;8.16;81.40
3844;BME280;1937;51.444;6.484;2023-05-19T03:56:54;66849.16;;;8.35;80.69
3844;BME280;1937;51.444;6.484;2023-05-19T03:59:21;66829.22;;;8.35;81.11
3844;BME280;1937;51.444;6.484;2023-05-19T04:01:50;66811.38;;;8.24;81.14
3844;BME280;1937;51.444;6.484;2023-05-19T04:04:17;66826.19;;;8.23;81.98
3844;BME280;1937;51.444;6.484;2023-05-19T04:06:44;66829.81;;;8.36;81.64
3844;BME280;1937;51.444;6.484;2023-05-19T04:09:12;66776.94;;;8.07;82.41
3844;BME280;1937;51.444;6.484;2023-05-19T04:11:39;66818.16;;;8.21;82.08
3844;BME280;1937;51.444;6.484;2023-05-19T04:14:06;66855.28;;;8.27;83.20
3844;BME280;1937;51.444;6.484;2023-05-19T04:16:33;66778.28;;;8.02;83.62
3844;BME280;1937;51.444;6.484;2023-05-19T04:19:01;66859.09;;;8.32;82.90
3844;BME280;1937;51.444;6.484;2023-05-19T04:21:28;66851.13;;;8.34;82.47
3844;BME280;1937;51.444;6.484;2023-05-19T04:23:55;66871.09;;;8.54;82.37
3844;BME280;1937;51.444;6.484;2023-05-19T04:26:22;66849.78;;;8.40;81.73
3844;BME280;1937;51.444;6.484;2023-05-19T04:28:50;66863.72;;;8.36;83.45
3844;BME280;1937;51.444;6.484;2023-05-19T04:31:18;66873.75;;;8.43;82.51
3844;BME280;1937;51.444;6.484;2023-05-19T04:33:45;66845.50;;;8.38;82.94
3844;BME280;1937;51.444;6.484;2023-05-19T04:36:15;66866.78;;;8.52;81.99
3844;BME280;1937;51.444;6.484;2023-05-19T04:38:45;66860.69;;;8.45;82.41
3844;BME280;1937;51.444;6.484;2023-05-19T04:41:12;66879.50;;;8.63;82.37
3844;BME280;1937;51.444;6.484;2023-05-19T04:43:40;66856.97;;;8.44;82.16
3844;BME280;1937;51.444;6.484;2023-05-19T04:46:09;66875.38;;;8.35;82.90
3844;BME280;1937;51.444;6.484;2023-05-19T04:48:37;66864.28;;;8.57;83.04
3844;BME280;1937;51.444;6.484;2023-05-19T04:51:04;66882.06;;;8.63;82.76
3844;BME280;1937;51.444;6.484;2023-05-19T04:53:33;66912.72;;;8.75;82.35
3844;BME280;1937;51.444;6.484;2023-05-19T04:56:00;66907.59;;;8.75;82.14
3844;BME280;1937;51.444;6.484;2023-05-19T04:58:27;66901.63;;;8.76;82.07
3844;BME280;1937;51.444;6.484;2023-05-19T05:00:54;66942.09;;;8.76;83.66
3844;BME280;1937;51.444;6.484;2023-05-19T05:03:22;66954.31;;;8.91;83.81
3844;BME280;1937;51.444;6.484;2023-05-19T05:05:48;66950.34;;;9.12;82.78
3844;BME280;1937;51.444;6.484;2023-05-19T05:08:15;66983.91;;;9.26;82.11
3844;BME280;1937;51.444;6.484;2023-05-19T05:10:49;66977.50;;;9.36;80.42
3844;BME280;1937;51.444;6.484;2023-05-19T05:13:17;66989.06;;;9.46;80.08
3844;BME280;1937;51.444;6.484;2023-05-19T05:15:44;67016.94;;;9.39;80.50
3844;BME280;1937;51.444;6.484;2023-05-19T05:18:12;67011.84;;;9.43;80.12
3844;BME280;1937;51.444;6.484;2023-05-19T05:20:40;67023.81;;;9.61;79.69
3844;BME280;1937;51.444;6.484;2023-05-19T05:23:08;67017.44;;;9.75;79.58
3844;BME280;1937;51.444;6.484;2023-05-19T05:25:39;67042.13;;;9.63;79.82
3844;BME280;1937;51.444;6.484;2023-05-19T05:28:07;67018.78;;;9.90;78.75
3844;BME280;1937;51.444;6.484;2023-05-19T05:30:34;67086.16;;;10.06;78.84
3844;BME280;1937;51.444;6.484;2023-05-19T05:33:01;67146.44;;;10.23;78.66
3844;BME280;1937;51.444;6.484;2023-05-19T05:35:28;67197.31;;;10.63;77.67
3844;BME280;1937;51.444;6.484;2023-05-19T05:37:54;67149.81;;;10.62;76.25
3844;BME280;1937;51.444;6.484;2023-05-19T05:40:21;67189.53;;;10.79;76.89
3844;BME280;1937;51.444;6.484;2023-05-19T05:42:48;67151.34;;;10.90;76.10
3844;BME280;1937;51.444;6.484;2023-05-19T05:45:16;67216.25;;;11.06;74.17
3844;BME280;1937;51.444;6.484;2023-05-19T05:47:43;67228.78;;;11.04;74.55
3844;BME280;1937;51.444;6.484;2023-05-19T05:50:11;67246.75;;;11.20;75.68
3844;BME280;1937;51.444;6.484;2023-05-19T05:52:40;67233.38;;;11.24;75.09
3844;BME280;1937;51.444;6.484;2023-05-19T05:55:08;67272.00;;;11.24;74.31
3844;BME280;1937;51.444;6.484;2023-05-19T05:57:35;67259.25;;;11.33;72.70
3844;BME280;1937;51.444;6.484;2023-05-19T06:00:02;67257.97;;;11.23;73.08
3844;BME280;1937;51.444;6.484;2023-05-19T06:02:33;67295.84;;;11.49;74.01
3844;BME280;1937;51.444;6.484;2023-05-19T06:05:01;67285.75;;;11.42;73.36
3844;BME280;1937;51.444;6.484;2023-05-19T06:07:27;67277.34;;;11.37;73.16
3844;BME280;1937;51.444;6.484;2023-05-19T06:09:54;67297.63;;;11.55;73.76
3844;BME280;1937;51.444;6.484;2023-05-19T06:12:21;67331.50;;;11.78;73.92
3844;BME280;1937;51.444;6.484;2023-05-19T06:14:48;67346.50;;;11.86;73.04
3844;BME280;1937;51.444;6.484;2023-05-19T06:17:16;67376.03;;;12.08;72.85
3844;BME280;1937;51.444;6.484;2023-05-19T06:19:44;67318.00;;;11.98;71.64
3844;BME280;1937;51.444;6.484;2023-05-19T06:22:10;67357.09;;;12.05;72.39
3844;BME280;1937;51.444;6.484;2023-05-19T06:24:40;67371.53;;;12.13;72.68
3844;BME280;1937;51.444;6.484;2023-05-19T06:27:06;67411.19;;;12.41;71.99
3844;BME280;1937;51.444;6.484;2023-05-19T06:29:33;67355.66;;;12.06;71.79
3844;BME280;1937;51.444;6.484;2023-05-19T06:32:00;67361.06;;;12.24;71.16
3844;BME280;1937;51.444;6.484;2023-05-19T06:34:26;67361.13;;;12.08;72.02
3844;BME280;1937;51.444;6.484;2023-05-19T06:36:54;67401.31;;;12.32;71.09
3844;BME280;1937;51.444;6.484;2023-05-19T06:39:21;67429.06;;;12.47;70.55
3844;BME280;1937;51.444;6.484;2023-05-19T06:41:49;67484.94;;;12.85;70.12
3844;BME280;1937;51.444;6.484;2023-05-19T06:44:15;67519.03;;;13.21;67.55
3844;BME280;1937;51.444;6.484;2023-05-19T06:46:42;67536.63;;;13.25;66.96
3844;BME280;1937;51.444;6.484;2023-05-19T06:49:09;67563.41;;;13.33;66.95
3844;BME280;1937;51.444;6.484;2023-05-19T06:51:35;67517.72;;;13.31;66.87
3844;BME280;1937;51.444;6.484;2023-05-19T06:54:03;67544.59;;;13.43;65.83
3844;BME280;1937;51.444;6.484;2023-05-19T06:56:30;67569.41;;;13.51;65.98
3844;BME280;1937;51.444;6.484;2023-05-19T06:58:57;67575.50;;;13.55;66.77
3844;BME280;1937;51.444;6.484;2023-05-19T07:01:23;67642.72;;;13.95;66.10
3844;BME280;1937;51.444;6.484;2023-05-19T07:03:52;67658.53;;;14.18;65.34
3844;BME280;1937;51.444;6.484;2023-05-19T07:06:18;67736.44;;;14.56;64.68
3844;BME280;1937;51.444;6.484;2023-05-19T07:08:45;67815.34;;;15.02;62.71
3844;BME280;1937;51.444;6.484;2023-05-19T07:11:13;67855.31;;;15.39;62.77
3844;BME280;1937;51.444;6.484;2023-05-19T07:13:40;67884.91;;;15.31;61.64
3844;BME280;1937;51.444;6.484;2023-05-19T07:16:06;67827.84;;;15.31;60.60
3844;BME280;1937;51.444;6.484;2023-05-19T07:18:33;67843.22;;;15.18;61.42
3844;BME280;1937;51.444;6.484;2023-05-19T07:21:00;67880.16;;;15.43;60.79
3844;BME280;1937;51.444;6.484;2023-05-19T07:23:26;67945.28;;;15.81;60.97
3844;BME280;1937;51.444;6.484;2023-05-19T07:25:54;67958.50;;;16.00;58.84
3844;BME280;1937;51.444;6.484;2023-05-19T07:28:23;67926.13;;;15.74;60.16
3844;BME280;1937;51.444;6.484;2023-05-19T07:30:50;67966.19;;;16.15;58.32
3844;BME280;1937;51.444;6.484;2023-05-19T07:33:17;68045.47;;;16.30;58.17
3844;BME280;1937;51.444;6.484;2023-05-19T07:35:44;68056.13;;;16.73;56.26
3844;BME280;1937;51.444;6.484;2023-05-19T07:38:10;68131.28;;;16.95;54.79
3844;BME280;1937;51.444;6.484;2023-05-19T07:40:40;68098.41;;;16.78;55.80
3844;BME280;1937;51.444;6.484;2023-05-19T07:43:07;68095.53;;;17.05;54.21
3844;BME280;1937;51.444;6.484;2023-05-19T07:45:36;68106.31;;;16.87;55.71
3844;BME280;1937;51.444;6.484;2023-05-19T07:48:03;68176.53;;;17.32;54.10
3844;BME280;1937;51.444;6.484;2023-05-19T07:50:31;68278.63;;;17.53;54.19
3844;BME280;1937;51.444;6.484;2023-05-19T07:52:59;68296.78;;;17.89;52.73
3844;BME280;1937;51.444;6.484;2023-05-19T07:55:26;68237.38;;;17.85;52.91
3844;BME280;1937;51.444;6.484;2023-05-19T07:57:53;68243.91;;;17.95;52.78
3844;BME280;1937;51.444;6.484;2023-05-19T08:00:20;68317.63;;;17.89;52.01
3844;BME280;1937;51.444;6.484;2023-05-19T08:02:48;68323.25;;;18.21;51.43
3844;BME280;1937;51.444;6.484;2023-05-19T08:05:17;68302.97;;;18.21;50.35
3844;BME280;1937;51.444;6.484;2023-05-19T08:07:46;68315.66;;;18.14;49.88
3844;BME280;1937;51.444;6.484;2023-05-19T08:10:13;68263.22;;;17.91;51.69
3844;BME280;1937;51.444;6.484;2023-05-19T08:12:40;68215.66;;;17.82;50.28
3844;BME280;1937;51.444;6.484;2023-05-19T08:15:08;68362.91;;;18.41;50.11
3844;BME280;1937;51.444;6.484;2023-05-19T08:17:36;68369.88;;;18.63;49.08
3844;BME280;1937;51.444;6.484;2023-05-19T08:20:05;68422.25;;;18.81;48.22
3844;BME280;1937;51.444;6.484;2023-05-19T08:22:32;68356.63;;;18.50;48.40
3844;BME280;1937;51.444;6.484;2023-05-19T08:24:59;68381.25;;;18.71;47.97
3844;BME280;1937;51.444;6.484;2023-05-19T08:27:26;68380.78;;;18.55;49.04
3844;BME280;1937;51.444;6.484;2023-05-19T08:29:52;68394.69;;;18.78;49.42
3844;BME280;1937;51.444;6.484;2023-05-19T08:32:19;68443.97;;;19.00;47.97
3844;BME280;1937;51.444;6.484;2023-05-19T08:34:46;68462.75;;;19.21;47.78
3844;BME280;1937;51.444;6.484;2023-05-19T08:37:14;68534.81;;;19.49;47.50
3844;BME280;1937;51.444;6.484;2023-05-19T08:39:41;68490.97;;;19.25;47.07
3844;BME280;1937;51.444;6.484;2023-05-19T08:42:07;68471.34;;;19.10;47.80
3844;BME280;1937;51.444;6.484;2023-05-19T08:44:34;68489.16;;;19.19;47.19
3844;BME280;1937;51.444;6.484;2023-05-19T08:47:02;68453.97;;;19.13;47.13
3844;BME280;1937;51.444;6.484;2023-05-19T08:49:32;68530.69;;;19.46;47.66
3844;BME280;1937;51.444;6.484;2023-05-19T08:52:06;68624.53;;;19.97;46.64
3844;BME280;1937;51.444;6.484;2023-05-19T08:54:40;68567.09;;;19.77;44.79
3844;BME280;1937;51.444;6.484;2023-05-19T08:57:09;68480.34;;;19.56;44.67
3844;BME280;1937;51.444;6.484;2023-05-19T08:59:36;68474.94;;;19.43;43.20
3844;BME280;1937;51.444;6.484;2023-05-19T09:02:03;68479.53;;;19.38;43.59
3844;BME280;1937;51.444;6.484;2023-05-19T09:04:31;68496.63;;;19.37;44.24
3844;BME280;1937;51.444;6.484;2023-05-19T09:06:58;68502.34;;;19.53;43.44
3844;BME280;1937;51.444;6.484;2023-05-19T09:09:28;68528.38;;;19.23;44.59
3844;BME280;1937;51.444;6.484;2023-05-19T09:11:56;68501.94;;;19.66;44.01
3844;BME280;1937;51.444;6.484;2023-05-19T09:14:23;68495.84;;;19.43;44.12
3844;BME280;1937;51.444;6.484;2023-05-19T09:16:50;68617.41;;;20.07;43.06
3844;BME280;1937;51.444;6.484;2023-05-19T09:19:17;68573.97;;;19.94;42.71
3844;BME280;1937;51.444;6.484;2023-05-19T09:21:45;68560.16;;;19.80;43.49
3844;BME280;1937;51.444;6.484;2023-05-19T09:24:11;68626.50;;;20.13;43.91
3844;BME280;1937;51.444;6.484;2023-05-19T09:26:39;68704.13;;;20.39;43.60
3844;BME280;1937;51.444;6.484;2023-05-19T09:29:22;68855.97;;;21.09;41.31
3844;BME280;1937;51.444;6.484;2023-05-19T09:31:49;68772.25;;;20.68;41.51
3844;BME280;1937;51.444;6.484;2023-05-19T09:34:16;68618.22;;;20.26;40.73
3844;BME280;1937;51.444;6.484;2023-05-19T09:36:44;68654.38;;;20.34;40.96
3844;BME280;1937;51.444;6.484;2023-05-19T09:39:14;68718.06;;;20.82;42.00
3844;BME280;1937;51.444;6.484;2023-05-19T09:41:40;68809.25;;;21.16;41.44
3844;BME280;1937;51.444;6.484;2023-05-19T09:44:12;68718.38;;;20.85;39.82
3844;BME280;1937;51.444;6.484;2023-05-19T09:46:47;68591.78;;;20.03;41.95
3844;BME280;1937;51.444;6.484;2023-05-19T09:49:18;68684.13;;;20.42;42.23
3844;BME280;1937;51.444;6.484;2023-05-19T09:51:48;68565.41;;;20.05;41.39
3844;BME280;1937;51.444;6.484;2023-05-19T09:54:14;68514.13;;;19.68;41.54
3844;BME280;1937;51.444;6.484;2023-05-19T09:56:41;68654.75;;;20.41;42.11
3844;BME280;1937;51.444;6.484;2023-05-19T09:59:08;68604.09;;;20.34;41.51
3844;BME280;1937;51.444;6.484;2023-05-19T10:01:37;68627.69;;;20.38;40.81
3844;BME280;1937;51.444;6.484;2023-05-19T10:04:05;68650.50;;;20.49;40.51
3844;BME280;1937;51.444;6.484;2023-05-19T10:06:32;68598.91;;;20.38;41.10
3844;BME280;1937;51.444;6.484;2023-05-19T10:09:00;68582.16;;;20.22;40.89
3844;BME280;1937;51.444;6.484;2023-05-19T10:11:28;68526.72;;;20.01;41.14
3844;BME280;1937;51.444;6.484;2023-05-19T10:13:56;68527.03;;;20.03;42.42
3844;BME280;1937;51.444;6.484;2023-05-19T10:16:24;68734.38;;;21.08;40.59
3844;BME280;1937;51.444;6.484;2023-05-19T10:18:54;68790.72;;;21.22;40.52
3844;BME280;1937;51.444;6.484;2023-05-19T10:21:21;68766.81;;;21.20;40.82
3844;BME280;1937;51.444;6.484;2023-05-19T10:23:47;68869.66;;;21.50;39.53
3844;BME280;1937;51.444;6.484;2023-05-19T10:26:14;68651.28;;;20.68;39.89
3844;BME280;1937;51.444;6.484;2023-05-19T10:28:43;68681.66;;;20.80;39.94
3844;BME280;1937;51.444;6.484;2023-05-19T10:31:15;68770.69;;;20.60;39.90
3844;BME280;1937;51.444;6.484;2023-05-19T10:33:58;68748.34;;;21.11;40.21
3844;BME280;1937;51.444;6.484;2023-05-19T10:36:38;68760.94;;;21.15;40.85
3844;BME280;1937;51.444;6.484;2023-05-19T10:39:15;68693.31;;;20.81;41.05
3844;BME280;1937;51.444;6.484;2023-05-19T10:41:47;68614.41;;;20.45;41.03
3844;BME280;1937;51.444;6.484;2023-05-19T10:44:29;68601.09;;;20.27;41.85
3844;BME280;1937;51.444;6.484;2023-05-19T10:46:59;68711.75;;;20.91;41.24
3844;BME280;1937;51.444;6.484;2023-05-19T10:49:27;68676.00;;;20.94;40.88
3844;BME280;1937;51.444;6.484;2023-05-19T10:51:54;68643.66;;;20.61;41.27
3844;BME280;1937;51.444;6.484;2023-05-19T10:54:39;68875.50;;;21.30;40.64
3844;BME280;1937;51.444;6.484;2023-05-19T10:57:07;68727.03;;;20.79;40.47
3844;BME280;1937;51.444;6.484;2023-05-19T10:59:35;68529.94;;;20.01;42.65
3844;BME280;1937;51.444;6.484;2023-05-19T11:02:04;68583.75;;;20.34;42.61
3844;BME280;1937;51.444;6.484;2023-05-19T11:04:47;68727.66;;;21.09;39.92
3844;BME280;1937;51.444;6.484;2023-05-19T11:07:16;68714.91;;;20.87;42.30
3844;BME280;1937;51.444;6.484;2023-05-19T11:09:48;68661.81;;;20.72;41.14
3844;BME280;1937;51.444;6.484;2023-05-19T11:12:19;68775.28;;;21.20;41.09
3844;BME280;1937;51.444;6.484;2023-05-19T11:14:46;68792.75;;;21.47;40.21
3844;BME280;1937;51.444;6.484;2023-05-19T11:17:14;68905.41;;;21.92;38.24
3844;BME280;1937;51.444;6.484;2023-05-19T11:19:53;69011.38;;;22.29;38.22
3844;BME280;1937;51.444;6.484;2023-05-19T11:22:22;69082.69;;;22.61;39.15
3844;BME280;1937;51.444;6.484;2023-05-19T11:24:49;69012.69;;;22.39;39.14
3844;BME280;1937;51.444;6.484;2023-05-19T11:27:23;68877.00;;;21.79;38.22
3844;BME280;1937;51.444;6.484;2023-05-19T11:29:50;68873.72;;;21.74;39.55
3844;BME280;1937;51.444;6.484;2023-05-19T11:32:19;68793.13;;;21.29;40.82
3844;BME280;1937;51.444;6.484;2023-05-19T11:34:47;68814.03;;;21.49;40.83
3844;BME280;1937;51.444;6.484;2023-05-19T11:37:16;68757.09;;;21.34;39.68
3844;BME280;1937;51.444;6.484;2023-05-19T11:39:44;68815.63;;;21.37;41.28
3844;BME280;1937;51.444;6.484;2023-05-19T11:42:10;68628.59;;;20.66;40.20
3844;BME280;1937;51.444;6.484;2023-05-19T11:44:37;68735.47;;;21.04;41.23
3844;BME280;1937;51.444;6.484;2023-05-19T11:47:05;68727.34;;;21.06;39.57
3844;BME280;1937;51.444;6.484;2023-05-19T11:49:32;68720.31;;;21.00;40.98
3844;BME280;1937;51.444;6.484;2023-05-19T11:51:59;68715.75;;;21.10;40.41
3844;BME280;1937;51.444;6.484;2023-05-19T11:54:30;68817.34;;;21.34;39.66
3844;BME280;1937;51.444;6.484;2023-05-19T11:56:59;68775.84;;;21.21;41.58
3844;BME280;1937;51.444;6.484;2023-05-19T11:59:30;68810.28;;;21.28;40.76
3844;BME280;1937;51.444;6.484;2023-05-19T12:02:00;68749.88;;;21.14;39.80
3844;BME280;1937;51.444;6.484;2023-05-19T12:04:27;68874.38;;;21.79;40.89
3844;BME280;1937;51.444;6.484;2023-05-19T12:06:54;68802.16;;;21.30;39.96
3844;BME280;1937;51.444;6.484;2023-05-19T12:09:21;68754.59;;;21.18;39.49
3844;BME280;1937;51.444;6.484;2023-05-19T12:11:50;68742.94;;;20.97;41.11
3844;BME280;1937;51.444;6.484;2023-05-19T12:14:17;68742.22;;;21.08;40.63
3844;BME280;1937;51.444;6.484;2023-05-19T12:16:44;69022.50;;;21.89;39.16
3844;BME280;1937;51.444;6.484;2023-05-19T12:19:10;68984.72;;;22.17;37.74
3844;BME280;1937;51.444;6.484;2023-05-19T12:21:37;68977.78;;;22.20;38.96
3844;BME280;1937;51.444;6.484;2023-05-19T12:24:05;68959.47;;;22.25;37.53
3844;BME280;1937;51.444;6.484;2023-05-19T12:26:32;68983.97;;;22.28;37.86
3844;BME280;1937;51.444;6.484;2023-05-19T12:29:00;68949.44;;;22.16;38.36
3844;BME280;1937;51.444;6.484;2023-05-19T12:31:27;68922.19;;;22.04;38.28
3844;BME280;1937;51.444;6.484;2023-05-19T12:33:54;68981.94;;;22.28;38.18
3844;BME280;1937;51.444;6.484;2023-05-19T12:36:22;68963.34;;;22.10;38.69
3844;BME280;1937;51.444;6.484;2023-05-19T12:38:52;68910.63;;;21.92;39.97
3844;BME280;1937;51.444;6.484;2023-05-19T12:41:19;69020.94;;;22.46;37.69
3844;BME280;1937;51.444;6.484;2023-05-19T12:43:47;69065.34;;;22.53;38.80
3844;BME280;1937;51.444;6.484;2023-05-19T12:46:17;68938.09;;;22.18;38.70
3844;BME280;1937;51.444;6.484;2023-05-19T12:48:45;68934.63;;;22.19;38.65
3844;BME280;1937;51.444;6.484;2023-05-19T12:51:15;68987.94;;;22.42;38.19
3844;BME280;1937;51.444;6.484;2023-05-19T12:53:42;69151.91;;;22.89;38.96
3844;BME280;1937;51.444;6.484;2023-05-19T12:56:11;69178.75;;;23.09;37.84
3844;BME280;1937;51.444;6.484;2023-05-19T12:58:38;68938.84;;;22.07;38.32
3844;BME280;1937;51.444;6.484;2023-05-19T13:01:05;68776.13;;;21.44;39.29
3844;BME280;1937;51.444;6.484;2023-05-19T13:03:39;68962.53;;;22.16;38.17
3844;BME280;1937;51.444;6.484;2023-05-19T13:06:07;69036.06;;;22.66;38.48
3844;BME280;1937;51.444;6.484;2023-05-19T13:08:35;69105.69;;;22.80;39.24
3844;BME280;1937;51.444;6.484;2023-05-19T13:11:02;69113.53;;;23.01;37.92
3844;BME280;1937;51.444;6.484;2023-05-19T13:13:29;68984.34;;;22.35;38.36
3844;BME280;1937;51.444;6.484;2023-05-19T13:15:55;69047.50;;;22.49;38.38
3844;BME280;1937;51.444;6.484;2023-05-19T13:18:22;69083.88;;;22.86;37.68
3844;BME280;1937;51.444;6.484;2023-05-19T13:20:50;69237.00;;;23.41;37.34
3844;BME280;1937;51.444;6.484;2023-05-19T13:23:17;69014.00;;;22.49;37.82
3844;BME280;1937;51.444;6.484;2023-05-19T13:25:43;69064.16;;;22.72;38.21
3844;BME280;1937;51.444;6.484;2023-05-19T13:28:11;69094.09;;;22.84;37.13
3844;BME280;1937;51.444;6.484;2023-05-19T13:30:42;69083.97;;;22.71;38.12
3844;BME280;1937;51.444;6.484;2023-05-19T13:33:09;69030.75;;;22.61;38.00